sensor_id;sensor_type;location;lat;lon;timestamp;pressure;altitude;pressure_sealevel;temperature;humidity
46714;BME280;32445;51.376;10.874;2023-07-29T00:00:31;98728.75;;;23.75;52.23
46714;BME280;32445;51.376;10.874;2023-07-29T00:03:31;98724.03;;;23.69;52.15
46714;BME280;32445;51.376;10.874;2023-07-29T00:06:32;98730.28;;;23.67;52.04
46714;BME280;32445;51.376;10.874;2023-07-29T00:09:32;98724.16;;;23.67;52.32
46714;BME280;32445;51.376;10.874;2023-07-29T00:12:34;98714.53;;;23.66;52.49
46714;BME280;32445;51.376;10.874;2023-07-29T00:15:34;98711.03;;;23.65;52.13
46714;BME280;32445;51.376;10.874;2023-07-29T00:18:35;98703.09;;;23.65;52.11
46714;BME280;32445;51.376;10.874;2023-07-29T00:21:36;98704.91;;;23.65;51.82
46714;BME280;32445;51.376;10.874;2023-07-29T00:24:36;98711.03;;;23.65;51.61
46714;BME280;32445;51.376;10.874;2023-07-29T00:27:36;98706.75;;;23.64;51.55
46714;BME280;32445;51.376;10.874;2023-07-29T00:30:37;98703.22;;;23.64;51.56
46714;BME280;32445;51.376;10.874;2023-07-29T00:33:37;98698.94;;;23.63;51.79
46714;BME280;32445;51.376;10.874;2023-07-29T00:36:37;98702.00;;;23.58;52.23
46714;BME280;32445;51.376;10.874;2023-07-29T00:39:38;98694.47;;;23.54;52.24
46714;BME280;32445;51.376;10.874;2023-07-29T00:42:38;98708.97;;;23.49;52.57
46714;BME280;32445;51.376;10.874;2023-07-29T00:45:39;98708.44;;;23.46;52.50
46714;BME280;32445;51.376;10.874;2023-07-29T00:48:40;98701.75;;;23.42;52.19
46714;BME280;32445;51.376;10.874;2023-07-29T00:51:40;98696.47;;;23.42;51.56
46714;BME280;32445;51.376;10.874;2023-07-29T00:54:41;98699.41;;;23.39;52.35
46714;BME280;32445;51.376;10.874;2023-07-29T00:57:42;98696.31;;;23.33;53.11
46714;BME280;32445;51.376;10.874;2023-07-29T01:00:48;98702.88;;;23.29;53.22
46714;BME280;32445;51.376;10.874;2023-07-29T01:03:49;98695.09;;;23.28;53.19
46714;BME280;32445;51.376;10.874;2023-07-29T01:06:56;98705.00;;;23.26;52.96
46714;BME280;32445;51.376;10.874;2023-07-29T01:10:04;98703.44;;;23.23;53.34
46714;BME280;32445;51.376;10.874;2023-07-29T01:13:19;98695.09;;;23.18;53.75
46714;BME280;32445;51.376;10.874;2023-07-29T01:16:33;98691.91;;;23.14;53.52
46714;BME280;32445;51.376;10.874;2023-07-29T01:19:48;98692.03;;;23.13;53.49
46714;BME280;32445;51.376;10.874;2023-07-29T01:22:54;98686.75;;;23.13;53.19
46714;BME280;32445;51.376;10.874;2023-07-29T01:25:54;98692.19;;;23.11;52.89
46714;BME280;32445;51.376;10.874;2023-07-29T01:28:56;98686.16;;;23.09;53.18
46714;BME280;32445;51.376;10.874;2023-07-29T01:32:04;98692.16;;;23.02;54.20
46714;BME280;32445;51.376;10.874;2023-07-29T01:35:23;98686.44;;;22.96;54.74
46714;BME280;32445;51.376;10.874;2023-07-29T01:38:30;98692.72;;;22.95;54.00
46714;BME280;32445;51.376;10.874;2023-07-29T01:41:34;98694.66;;;22.93;53.85
46714;BME280;32445;51.376;10.874;2023-07-29T01:44:34;98690.47;;;22.91;53.19
46714;BME280;32445;51.376;10.874;2023-07-29T01:47:35;98681.97;;;22.87;52.84
46714;BME280;32445;51.376;10.874;2023-07-29T01:50:36;98682.13;;;22.86;53.72
46714;BME280;32445;51.376;10.874;2023-07-29T01:53:37;98681.56;;;22.82;53.66
46714;BME280;32445;51.376;10.874;2023-07-29T01:56:37;98681.56;;;22.82;53.63
46714;BME280;32445;51.376;10.874;2023-07-29T01:59:37;98687.13;;;22.79;53.65
46714;BME280;32445;51.376;10.874;2023-07-29T02:02:38;98690.06;;;22.76;53.72
46714;BME280;32445;51.376;10.874;2023-07-29T02:05:38;98684.06;;;22.74;53.96
46714;BME280;32445;51.376;10.874;2023-07-29T02:08:38;98687.09;;;22.69;53.97
46714;BME280;32445;51.376;10.874;2023-07-29T02:11:41;98687.53;;;22.64;54.38
46714;BME280;32445;51.376;10.874;2023-07-29T02:14:41;98696.56;;;22.62;54.41
46714;BME280;32445;51.376;10.874;2023-07-29T02:17:42;98693.25;;;22.60;54.46
46714;BME280;32445;51.376;10.874;2023-07-29T02:20:42;98688.09;;;22.58;54.48
46714;BME280;32445;51.376;10.874;2023-07-29T02:23:49;98690.44;;;22.52;54.72
46714;BME280;32445;51.376;10.874;2023-07-29T02:26:49;98690.72;;;22.49;55.05
46714;BME280;32445;51.376;10.874;2023-07-29T02:29:49;98693.34;;;22.49;54.55
46714;BME280;32445;51.376;10.874;2023-07-29T02:32:50;98695.16;;;22.48;54.71
46714;BME280;32445;51.376;10.874;2023-07-29T02:35:50;98682.19;;;22.45;55.18
46714;BME280;32445;51.376;10.874;2023-07-29T02:38:50;98688.63;;;22.42;55.05
46714;BME280;32445;51.376;10.874;2023-07-29T02:41:51;98678.19;;;22.41;55.06
46714;BME280;32445;51.376;10.874;2023-07-29T02:44:51;98669.25;;;22.42;55.07
46714;BME280;32445;51.376;10.874;2023-07-29T02:47:52;98678.03;;;22.42;54.88
46714;BME280;32445;51.376;10.874;2023-07-29T02:50:53;98679.56;;;22.45;54.94
46714;BME280;32445;51.376;10.874;2023-07-29T02:53:54;98680.81;;;22.41;54.97
46714;BME280;32445;51.376;10.874;2023-07-29T02:56:54;98689.00;;;22.38;55.12
46714;BME280;32445;51.376;10.874;2023-07-29T02:59:54;98688.69;;;22.31;55.27
46714;BME280;32445;51.376;10.874;2023-07-29T03:02:54;98686.56;;;22.25;55.42
46714;BME280;32445;51.376;10.874;2023-07-29T03:06:08;98687.13;;;22.19;56.10
46714;BME280;32445;51.376;10.874;2023-07-29T03:09:09;98690.84;;;22.16;56.09
46714;BME280;32445;51.376;10.874;2023-07-29T03:12:09;98683.06;;;22.15;56.09
46714;BME280;32445;51.376;10.874;2023-07-29T03:15:10;98682.94;;;22.16;55.98
46714;BME280;32445;51.376;10.874;2023-07-29T03:18:10;98680.16;;;22.18;55.87
46714;BME280;32445;51.376;10.874;2023-07-29T03:21:11;98669.31;;;22.21;55.77
46714;BME280;32445;51.376;10.874;2023-07-29T03:24:11;98666.41;;;22.24;55.56
46714;BME280;32445;51.376;10.874;2023-07-29T03:27:11;98663.50;;;22.27;55.30
46714;BME280;32445;51.376;10.874;2023-07-29T03:30:12;98662.41;;;22.29;55.08
46714;BME280;32445;51.376;10.874;2023-07-29T03:33:12;98659.63;;;22.31;54.61
46714;BME280;32445;51.376;10.874;2023-07-29T03:36:12;98670.09;;;22.33;55.11
46714;BME280;32445;51.376;10.874;2023-07-29T03:39:14;98662.00;;;22.34;54.38
46714;BME280;32445;51.376;10.874;2023-07-29T03:42:14;98663.41;;;22.38;53.57
46714;BME280;32445;51.376;10.874;2023-07-29T03:45:15;98668.00;;;22.36;53.84
46714;BME280;32445;51.376;10.874;2023-07-29T03:48:15;98667.16;;;22.36;54.11
46714;BME280;32445;51.376;10.874;2023-07-29T03:51:15;98672.44;;;22.36;54.38
46714;BME280;32445;51.376;10.874;2023-07-29T03:54:16;98661.88;;;22.36;54.41
46714;BME280;32445;51.376;10.874;2023-07-29T03:57:16;98668.00;;;22.36;54.18
46714;BME280;32445;51.376;10.874;2023-07-29T04:00:16;98665.22;;;22.38;54.20
46714;BME280;32445;51.376;10.874;2023-07-29T04:03:17;98660.63;;;22.40;54.07
46714;BME280;32445;51.376;10.874;2023-07-29T04:06:17;98659.66;;;22.41;54.15
46714;BME280;32445;51.376;10.874;2023-07-29T04:09:17;98660.50;;;22.41;54.21
46714;BME280;32445;51.376;10.874;2023-07-29T04:12:18;98638.53;;;22.41;54.00
46714;BME280;32445;51.376;10.874;2023-07-29T04:15:21;98651.03;;;22.39;54.42
46714;BME280;32445;51.376;10.874;2023-07-29T04:18:21;98639.47;;;22.40;54.62
46714;BME280;32445;51.376;10.874;2023-07-29T04:21:22;98635.88;;;22.41;54.51
46714;BME280;32445;51.376;10.874;2023-07-29T04:24:22;98622.50;;;22.42;54.48
46714;BME280;32445;51.376;10.874;2023-07-29T04:27:23;98616.22;;;22.43;54.39
46714;BME280;32445;51.376;10.874;2023-07-29T04:30:23;98631.28;;;22.43;54.39
46714;BME280;32445;51.376;10.874;2023-07-29T04:33:24;98652.56;;;22.41;54.64
46714;BME280;32445;51.376;10.874;2023-07-29T04:36:24;98655.75;;;22.35;54.59
46714;BME280;32445;51.376;10.874;2023-07-29T04:39:24;98657.69;;;22.33;54.80
46714;BME280;32445;51.376;10.874;2023-07-29T04:42:25;98641.00;;;22.33;55.06
46714;BME280;32445;51.376;10.874;2023-07-29T04:45:28;98645.28;;;22.34;55.14
46714;BME280;32445;51.376;10.874;2023-07-29T04:48:29;98635.72;;;22.33;55.56
46714;BME280;32445;51.376;10.874;2023-07-29T04:51:31;98621.06;;;22.28;55.10
46714;BME280;32445;51.376;10.874;2023-07-29T04:54:34;98633.56;;;22.26;55.88
46714;BME280;32445;51.376;10.874;2023-07-29T04:57:34;98629.00;;;22.28;55.98
46714;BME280;32445;51.376;10.874;2023-07-29T05:00:34;98629.53;;;22.32;55.60
46714;BME280;32445;51.376;10.874;2023-07-29T05:03:35;98635.56;;;22.34;55.77
46714;BME280;32445;51.376;10.874;2023-07-29T05:06:35;98622.75;;;22.39;55.71
46714;BME280;32445;51.376;10.874;2023-07-29T05:09:35;98616.22;;;22.43;55.56
46714;BME280;32445;51.376;10.874;2023-07-29T05:12:36;98620.13;;;22.49;55.51
46714;BME280;32445;51.376;10.874;2023-07-29T05:15:36;98616.38;;;22.52;55.45
46714;BME280;32445;51.376;10.874;2023-07-29T05:18:36;98611.91;;;22.52;55.06
46714;BME280;32445;51.376;10.874;2023-07-29T05:21:37;98603.84;;;22.54;55.29
46714;BME280;32445;51.376;10.874;2023-07-29T05:24:38;98604.28;;;22.59;55.01
46714;BME280;32445;51.376;10.874;2023-07-29T05:27:38;98611.66;;;22.65;54.44
46714;BME280;32445;51.376;10.874;2023-07-29T05:30:39;98596.50;;;22.67;54.77
46714;BME280;32445;51.376;10.874;2023-07-29T05:33:40;98607.63;;;22.71;55.08
46714;BME280;32445;51.376;10.874;2023-07-29T05:36:40;98609.00;;;22.75;54.79
46714;BME280;32445;51.376;10.874;2023-07-29T05:39:41;98629.22;;;22.76;55.22
46714;BME280;32445;51.376;10.874;2023-07-29T05:42:41;98626.56;;;22.76;55.12
46714;BME280;32445;51.376;10.874;2023-07-29T05:45:42;98621.94;;;22.78;55.24
46714;BME280;32445;51.376;10.874;2023-07-29T05:48:42;98630.47;;;22.81;55.06
46714;BME280;32445;51.376;10.874;2023-07-29T05:51:42;98619.44;;;22.86;54.92
46714;BME280;32445;51.376;10.874;2023-07-29T05:54:43;98620.41;;;22.85;55.18
46714;BME280;32445;51.376;10.874;2023-07-29T05:57:43;98622.09;;;22.86;55.50
46714;BME280;32445;51.376;10.874;2023-07-29T06:00:44;98617.38;;;22.90;54.95
46714;BME280;32445;51.376;10.874;2023-07-29T06:03:44;98603.56;;;22.96;54.81
46714;BME280;32445;51.376;10.874;2023-07-29T06:06:44;98613.59;;;23.02;54.79
46714;BME280;32445;51.376;10.874;2023-07-29T06:09:45;98622.50;;;23.11;54.61
46714;BME280;32445;51.376;10.874;2023-07-29T06:12:46;98624.47;;;23.19;54.79
46714;BME280;32445;51.376;10.874;2023-07-29T06:15:46;98627.34;;;23.25;54.41
46714;BME280;32445;51.376;10.874;2023-07-29T06:18:47;98623.44;;;23.29;54.11
46714;BME280;32445;51.376;10.874;2023-07-29T06:21:48;98626.81;;;23.31;54.19
46714;BME280;32445;51.376;10.874;2023-07-29T06:24:48;98625.41;;;23.37;53.98
46714;BME280;32445;51.376;10.874;2023-07-29T06:27:48;98621.50;;;23.41;53.86
46714;BME280;32445;51.376;10.874;2023-07-29T06:30:49;98617.84;;;23.42;53.87
46714;BME280;32445;51.376;10.874;2023-07-29T06:33:49;98605.16;;;23.46;54.01
46714;BME280;32445;51.376;10.874;2023-07-29T06:36:49;98624.53;;;23.46;54.08
46714;BME280;32445;51.376;10.874;2023-07-29T06:39:50;98626.72;;;23.51;53.85
46714;BME280;32445;51.376;10.874;2023-07-29T06:42:50;98623.13;;;23.52;53.90
46714;BME280;32445;51.376;10.874;2023-07-29T06:45:50;98620.31;;;23.54;53.85
46714;BME280;32445;51.376;10.874;2023-07-29T06:48:51;98618.53;;;23.54;53.84
46714;BME280;32445;51.376;10.874;2023-07-29T06:51:52;98619.34;;;23.55;53.77
46714;BME280;32445;51.376;10.874;2023-07-29T06:54:52;98614.88;;;23.55;53.79
46714;BME280;32445;51.376;10.874;2023-07-29T06:57:53;98608.47;;;23.58;53.91
46714;BME280;32445;51.376;10.874;2023-07-29T07:00:53;98604.53;;;23.62;53.80
46714;BME280;32445;51.376;10.874;2023-07-29T07:03:53;98591.72;;;23.67;53.73
46714;BME280;32445;51.376;10.874;2023-07-29T07:06:54;98592.50;;;23.77;53.71
46714;BME280;32445;51.376;10.874;2023-07-29T07:09:55;98589.91;;;23.85;53.85
46714;BME280;32445;51.376;10.874;2023-07-29T07:12:55;98603.44;;;23.92;53.62
46714;BME280;32445;51.376;10.874;2023-07-29T07:15:56;98606.06;;;24.02;53.37
46714;BME280;32445;51.376;10.874;2023-07-29T07:18:56;98608.66;;;24.12;52.98
46714;BME280;32445;51.376;10.874;2023-07-29T07:21:57;98601.78;;;24.19;52.91
46714;BME280;32445;51.376;10.874;2023-07-29T07:24:57;98595.03;;;24.25;52.66
46714;BME280;32445;51.376;10.874;2023-07-29T07:27:57;98598.91;;;24.30;52.62
46714;BME280;32445;51.376;10.874;2023-07-29T07:30:58;98589.69;;;24.34;52.62
46714;BME280;32445;51.376;10.874;2023-07-29T07:33:59;98596.34;;;24.39;52.29
46714;BME280;32445;51.376;10.874;2023-07-29T07:37:00;98598.84;;;24.40;52.28
46714;BME280;32445;51.376;10.874;2023-07-29T07:40:00;98599.22;;;24.45;52.19
46714;BME280;32445;51.376;10.874;2023-07-29T07:43:01;98597.78;;;24.51;51.82
46714;BME280;32445;51.376;10.874;2023-07-29T07:46:02;98599.16;;;24.55;51.47
46714;BME280;32445;51.376;10.874;2023-07-29T07:49:03;98593.53;;;24.58;51.38
46714;BME280;32445;51.376;10.874;2023-07-29T07:52:03;98594.25;;;24.60;51.47
46714;BME280;32445;51.376;10.874;2023-07-29T07:55:04;98592.28;;;24.62;51.47
46714;BME280;32445;51.376;10.874;2023-07-29T07:58:04;98593.78;;;24.65;51.59
46714;BME280;32445;51.376;10.874;2023-07-29T08:01:06;98595.00;;;24.70;51.50
46714;BME280;32445;51.376;10.874;2023-07-29T08:04:07;98597.03;;;24.77;51.55
46714;BME280;32445;51.376;10.874;2023-07-29T08:07:07;98583.47;;;24.80;51.45
46714;BME280;32445;51.376;10.874;2023-07-29T08:10:08;98584.50;;;24.87;51.00
46714;BME280;32445;51.376;10.874;2023-07-29T08:13:08;98573.56;;;24.90;51.30
46714;BME280;32445;51.376;10.874;2023-07-29T08:16:08;98565.34;;;24.93;50.97
46714;BME280;32445;51.376;10.874;2023-07-29T08:19:09;98561.22;;;24.99;51.18
46714;BME280;32445;51.376;10.874;2023-07-29T08:22:10;98563.91;;;25.07;50.71
46714;BME280;32445;51.376;10.874;2023-07-29T08:25:10;98574.22;;;25.10;50.51
46714;BME280;32445;51.376;10.874;2023-07-29T08:28:10;98573.94;;;25.13;50.45
46714;BME280;32445;51.376;10.874;2023-07-29T08:31:11;98574.75;;;25.14;50.14
46714;BME280;32445;51.376;10.874;2023-07-29T08:34:11;98566.25;;;25.10;50.35
46714;BME280;32445;51.376;10.874;2023-07-29T08:37:12;98567.41;;;25.08;49.82
46714;BME280;32445;51.376;10.874;2023-07-29T08:40:13;98557.56;;;25.00;50.36
46714;BME280;32445;51.376;10.874;2023-07-29T08:43:14;98563.34;;;24.95;50.24
46714;BME280;32445;51.376;10.874;2023-07-29T08:46:16;98572.13;;;24.96;50.26
46714;BME280;32445;51.376;10.874;2023-07-29T08:49:18;98586.41;;;24.95;50.37
46714;BME280;32445;51.376;10.874;2023-07-29T08:52:23;98585.88;;;24.91;50.26
46714;BME280;32445;51.376;10.874;2023-07-29T08:55:24;98578.53;;;24.85;50.16
46714;BME280;32445;51.376;10.874;2023-07-29T08:58:25;98569.06;;;24.82;50.33
46714;BME280;32445;51.376;10.874;2023-07-29T09:01:26;98570.03;;;24.81;50.46
46714;BME280;32445;51.376;10.874;2023-07-29T09:04:26;98558.59;;;24.81;50.36
46714;BME280;32445;51.376;10.874;2023-07-29T09:07:29;98560.44;;;24.80;50.67
46714;BME280;32445;51.376;10.874;2023-07-29T09:10:29;98552.81;;;24.85;50.72
46714;BME280;32445;51.376;10.874;2023-07-29T09:13:30;98559.88;;;24.95;50.47
46714;BME280;32445;51.376;10.874;2023-07-29T09:16:31;98541.78;;;24.98;50.49
46714;BME280;32445;51.376;10.874;2023-07-29T09:19:33;98549.16;;;25.04;50.55
46714;BME280;32445;51.376;10.874;2023-07-29T09:22:34;98553.97;;;25.09;50.28
46714;BME280;32445;51.376;10.874;2023-07-29T09:25:34;98563.00;;;25.16;50.18
46714;BME280;32445;51.376;10.874;2023-07-29T09:28:36;98553.03;;;25.18;49.97
46714;BME280;32445;51.376;10.874;2023-07-29T09:31:37;98567.81;;;25.21;49.99
46714;BME280;32445;51.376;10.874;2023-07-29T09:34:41;98569.34;;;25.24;50.19
46714;BME280;32445;51.376;10.874;2023-07-29T09:37:43;98574.50;;;25.25;50.31
46714;BME280;32445;51.376;10.874;2023-07-29T09:40:43;98587.28;;;25.30;49.97
46714;BME280;32445;51.376;10.874;2023-07-29T09:43:45;98576.31;;;25.25;50.08
46714;BME280;32445;51.376;10.874;2023-07-29T09:46:46;98589.72;;;25.23;50.35
46714;BME280;32445;51.376;10.874;2023-07-29T09:49:47;98586.63;;;25.28;50.06
46714;BME280;32445;51.376;10.874;2023-07-29T09:52:47;98588.97;;;25.31;50.02
46714;BME280;32445;51.376;10.874;2023-07-29T09:55:48;98596.94;;;25.31;50.05
46714;BME280;32445;51.376;10.874;2023-07-29T09:58:50;98595.13;;;25.31;49.83
46714;BME280;32445;51.376;10.874;2023-07-29T10:01:51;98582.69;;;25.32;50.09
46714;BME280;32445;51.376;10.874;2023-07-29T10:04:55;98577.91;;;25.35;49.88
46714;BME280;32445;51.376;10.874;2023-07-29T10:07:56;98579.25;;;25.39;49.62
46714;BME280;32445;51.376;10.874;2023-07-29T10:10:59;98589.22;;;25.37;49.57
46714;BME280;32445;51.376;10.874;2023-07-29T10:14:00;98577.38;;;25.32;49.50
46714;BME280;32445;51.376;10.874;2023-07-29T10:17:02;98579.63;;;25.27;49.79
46714;BME280;32445;51.376;10.874;2023-07-29T10:20:04;98579.09;;;25.23;50.04
46714;BME280;32445;51.376;10.874;2023-07-29T10:23:07;98582.78;;;25.22;49.87
46714;BME280;32445;51.376;10.874;2023-07-29T10:26:10;98582.28;;;25.27;49.97
46714;BME280;32445;51.376;10.874;2023-07-29T10:29:12;98573.19;;;25.29;50.06
46714;BME280;32445;51.376;10.874;2023-07-29T10:32:13;98572.91;;;25.32;49.75
46714;BME280;32445;51.376;10.874;2023-07-29T10:35:15;98572.25;;;25.38;49.54
46714;BME280;32445;51.376;10.874;2023-07-29T10:38:16;98564.66;;;25.44;49.66
46714;BME280;32445;51.376;10.874;2023-07-29T10:41:17;98569.00;;;25.45;49.14
46714;BME280;32445;51.376;10.874;2023-07-29T10:47:39;98572.81;;;25.50;49.02
46714;BME280;32445;51.376;10.874;2023-07-29T10:50:39;98561.34;;;25.50;48.81
46714;BME280;32445;51.376;10.874;2023-07-29T10:53:40;98558.69;;;25.50;49.02
46714;BME280;32445;51.376;10.874;2023-07-29T10:56:41;98571.81;;;25.51;48.85
46714;BME280;32445;51.376;10.874;2023-07-29T10:59:54;98576.63;;;25.48;48.74
46714;BME280;32445;51.376;10.874;2023-07-29T11:03:03;98565.31;;;25.46;48.99
46714;BME280;32445;51.376;10.874;2023-07-29T11:06:05;98561.56;;;25.56;48.91
46714;BME280;32445;51.376;10.874;2023-07-29T11:15:48;98544.44;;;25.94;47.64
46714;BME280;32445;51.376;10.874;2023-07-29T11:18:50;98545.00;;;26.14;47.55
46714;BME280;32445;51.376;10.874;2023-07-29T11:21:51;98538.38;;;26.34;47.24
46714;BME280;32445;51.376;10.874;2023-07-29T11:24:52;98544.03;;;26.56;47.10
46714;BME280;32445;51.376;10.874;2023-07-29T11:27:53;98532.41;;;26.65;46.49
46714;BME280;32445;51.376;10.874;2023-07-29T11:30:55;98528.75;;;26.74;46.04
46714;BME280;32445;51.376;10.874;2023-07-29T11:33:56;98516.44;;;26.82;45.52
46714;BME280;32445;51.376;10.874;2023-07-29T11:36:56;98518.75;;;26.93;45.04
46714;BME280;32445;51.376;10.874;2023-07-29T11:39:56;98537.38;;;27.01;45.00
46714;BME280;32445;51.376;10.874;2023-07-29T11:42:58;98519.22;;;27.05;44.47
46714;BME280;32445;51.376;10.874;2023-07-29T11:46:00;98513.88;;;27.13;44.30
46714;BME280;32445;51.376;10.874;2023-07-29T11:49:01;98510.31;;;27.29;43.45
46714;BME280;32445;51.376;10.874;2023-07-29T11:52:06;98509.28;;;27.47;42.92
46714;BME280;32445;51.376;10.874;2023-07-29T11:55:07;98511.91;;;27.55;42.31
46714;BME280;32445;51.376;10.874;2023-07-29T11:58:08;98503.75;;;27.56;42.75
46714;BME280;32445;51.376;10.874;2023-07-29T12:01:09;98511.88;;;27.63;42.20
46714;BME280;32445;51.376;10.874;2023-07-29T12:04:10;98503.97;;;27.78;42.38
46714;BME280;32445;51.376;10.874;2023-07-29T12:07:12;98510.88;;;27.95;41.59
46714;BME280;32445;51.376;10.874;2023-07-29T12:10:13;98493.44;;;28.16;41.03
46714;BME280;32445;51.376;10.874;2023-07-29T12:13:14;98500.59;;;28.39;41.40
46714;BME280;32445;51.376;10.874;2023-07-29T12:16:17;98500.00;;;28.52;38.86
46714;BME280;32445;51.376;10.874;2023-07-29T12:19:18;98497.97;;;28.54;39.15
46714;BME280;32445;51.376;10.874;2023-07-29T12:22:19;98504.22;;;28.61;39.51
46714;BME280;32445;51.376;10.874;2023-07-29T12:25:19;98490.41;;;28.80;39.63
46714;BME280;32445;51.376;10.874;2023-07-29T12:28:22;98497.31;;;28.90;38.65
46714;BME280;32445;51.376;10.874;2023-07-29T12:31:30;98480.09;;;28.92;38.09
46714;BME280;32445;51.376;10.874;2023-07-29T12:34:31;98481.75;;;28.93;38.79
46714;BME280;32445;51.376;10.874;2023-07-29T12:37:32;98476.69;;;28.98;38.44
46714;BME280;32445;51.376;10.874;2023-07-29T12:40:37;98481.75;;;29.08;37.42
46714;BME280;32445;51.376;10.874;2023-07-29T12:43:38;98483.78;;;29.21;37.21
46714;BME280;32445;51.376;10.874;2023-07-29T12:46:39;98482.50;;;29.47;37.40
46714;BME280;32445;51.376;10.874;2023-07-29T12:49:39;98485.00;;;29.70;36.68
46714;BME280;32445;51.376;10.874;2023-07-29T12:52:39;98463.75;;;29.98;37.31
46714;BME280;32445;51.376;10.874;2023-07-29T12:55:40;98478.19;;;30.26;36.15
46714;BME280;32445;51.376;10.874;2023-07-29T12:58:40;98478.84;;;30.28;34.39
46714;BME280;32445;51.376;10.874;2023-07-29T13:01:40;98481.53;;;30.28;35.40
46714;BME280;32445;51.376;10.874;2023-07-29T13:04:41;98482.25;;;30.15;33.32
46714;BME280;32445;51.376;10.874;2023-07-29T13:07:41;98479.59;;;30.00;34.17
46714;BME280;32445;51.376;10.874;2023-07-29T13:10:42;98492.19;;;29.84;33.94
46714;BME280;32445;51.376;10.874;2023-07-29T13:13:42;98486.56;;;29.79;35.37
46714;BME280;32445;51.376;10.874;2023-07-29T13:16:43;98485.72;;;29.79;35.58
46714;BME280;32445;51.376;10.874;2023-07-29T13:19:43;98485.09;;;29.77;35.92
46714;BME280;32445;51.376;10.874;2023-07-29T13:22:43;98491.84;;;29.73;35.54
46714;BME280;32445;51.376;10.874;2023-07-29T13:25:43;98503.72;;;29.70;36.29
46714;BME280;32445;51.376;10.874;2023-07-29T13:28:44;98518.16;;;29.54;35.62
46714;BME280;32445;51.376;10.874;2023-07-29T13:31:44;98526.28;;;29.31;35.57
46714;BME280;32445;51.376;10.874;2023-07-29T13:34:44;98527.09;;;29.16;35.37
46714;BME280;32445;51.376;10.874;2023-07-29T13:37:45;98536.94;;;29.01;36.09
46714;BME280;32445;51.376;10.874;2023-07-29T13:40:45;98535.00;;;28.95;35.47
46714;BME280;32445;51.376;10.874;2023-07-29T13:43:45;98540.34;;;28.95;36.30
46714;BME280;32445;51.376;10.874;2023-07-29T13:46:46;98529.84;;;28.93;35.91
46714;BME280;32445;51.376;10.874;2023-07-29T13:49:46;98545.75;;;28.87;36.79
46714;BME280;32445;51.376;10.874;2023-07-29T13:52:46;98540.47;;;28.78;36.14
46714;BME280;32445;51.376;10.874;2023-07-29T13:55:46;98538.19;;;28.75;36.65
46714;BME280;32445;51.376;10.874;2023-07-29T13:58:47;98543.59;;;28.67;36.10
46714;BME280;32445;51.376;10.874;2023-07-29T14:01:47;98546.78;;;28.62;36.79
46714;BME280;32445;51.376;10.874;2023-07-29T14:04:47;98545.47;;;28.58;38.37
46714;BME280;32445;51.376;10.874;2023-07-29T14:07:48;98544.53;;;28.51;38.53
46714;BME280;32445;51.376;10.874;2023-07-29T14:10:49;98544.06;;;28.47;38.95
46714;BME280;32445;51.376;10.874;2023-07-29T14:13:50;98549.63;;;28.38;38.77
46714;BME280;32445;51.376;10.874;2023-07-29T14:16:50;98558.53;;;28.30;39.28
46714;BME280;32445;51.376;10.874;2023-07-29T14:19:50;98560.53;;;28.28;39.37
46714;BME280;32445;51.376;10.874;2023-07-29T14:22:50;98569.09;;;28.23;39.61
46714;BME280;32445;51.376;10.874;2023-07-29T14:25:51;98573.16;;;28.11;39.89
46714;BME280;32445;51.376;10.874;2023-07-29T14:28:51;98578.03;;;28.07;39.94
46714;BME280;32445;51.376;10.874;2023-07-29T14:31:52;98582.22;;;28.02;40.13
46714;BME280;32445;51.376;10.874;2023-07-29T14:34:52;98579.91;;;27.90;40.30
46714;BME280;32445;51.376;10.874;2023-07-29T14:37:52;98575.31;;;27.76;41.22
46714;BME280;32445;51.376;10.874;2023-07-29T14:40:53;98580.47;;;27.77;41.16
46714;BME280;32445;51.376;10.874;2023-07-29T14:43:54;98583.44;;;27.83;41.69
46714;BME280;32445;51.376;10.874;2023-07-29T14:46:55;98574.22;;;27.93;41.93
46714;BME280;32445;51.376;10.874;2023-07-29T14:49:55;98585.56;;;27.95;41.01
46714;BME280;32445;51.376;10.874;2023-07-29T14:52:55;98584.38;;;27.98;41.14
46714;BME280;32445;51.376;10.874;2023-07-29T14:55:56;98572.38;;;28.02;41.61
46714;BME280;32445;51.376;10.874;2023-07-29T14:58:56;98566.59;;;28.22;41.59
46714;BME280;32445;51.376;10.874;2023-07-29T15:01:56;98564.75;;;28.45;41.77
46714;BME280;32445;51.376;10.874;2023-07-29T15:04:56;98554.81;;;28.62;41.98
46714;BME280;32445;51.376;10.874;2023-07-29T15:07:57;98556.50;;;28.78;41.56
46714;BME280;32445;51.376;10.874;2023-07-29T15:10:57;98543.31;;;29.00;41.17
46714;BME280;32445;51.376;10.874;2023-07-29T15:13:57;98542.31;;;29.16;41.01
46714;BME280;32445;51.376;10.874;2023-07-29T15:16:58;98547.56;;;29.24;41.00
46714;BME280;32445;51.376;10.874;2023-07-29T15:19:58;98546.00;;;29.30;40.55
46714;BME280;32445;51.376;10.874;2023-07-29T15:22:59;98549.06;;;29.42;40.67
46714;BME280;32445;51.376;10.874;2023-07-29T15:25:59;98542.03;;;29.56;40.20
46714;BME280;32445;51.376;10.874;2023-07-29T15:28:59;98546.16;;;29.73;40.21
46714;BME280;32445;51.376;10.874;2023-07-29T15:32:00;98544.69;;;29.85;38.90
46714;BME280;32445;51.376;10.874;2023-07-29T15:35:00;98544.59;;;29.94;39.15
46714;BME280;32445;51.376;10.874;2023-07-29T15:38:01;98537.00;;;29.97;37.94
46714;BME280;32445;51.376;10.874;2023-07-29T15:41:01;98540.56;;;30.05;38.49
46714;BME280;32445;51.376;10.874;2023-07-29T15:44:02;98542.41;;;30.04;37.19
46714;BME280;32445;51.376;10.874;2023-07-29T15:47:02;98539.84;;;29.96;36.91
46714;BME280;32445;51.376;10.874;2023-07-29T15:50:02;98538.94;;;29.89;37.80
46714;BME280;32445;51.376;10.874;2023-07-29T15:53:03;98527.06;;;29.76;36.93
46714;BME280;32445;51.376;10.874;2023-07-29T15:56:03;98527.81;;;29.70;37.96